Complete Listing

Please note prices are subject to change.

Currently Scheduled

Title Begins Number Meets Fee
3-Wheel Can-Am Rider Education Program10/10/20201PTRL50803Sa & Su : 8:00 AM - 5:00 PM99.00
3-Wheel Can-Am Rider Education Program10/24/20201PTRL50804Sa & Su : 8:00 AM - 5:00 PM99.00
3-Wheel Can-Am Rider Education Program11/07/20201PTRL50805Sa & Su : 8:00 AM - 5:00 PM99.00
3-Wheel Can-Am Rider Education Program11/21/20201PTRL50806Sa & Su : 8:00 AM - 5:00 PM99.00
ACLS - Advanced Cardiac Life Support11/21/20201XEMS50102Sa & Su : 9:00 AM - 4:30 PM109.00
ACLS Instructor Renewal11/14/20201XEMS50402Sa : 9:00 AM - 1:00 PM59.00
ACLS Renewal - Advanced Cardiac Life Support10/17/20201XEMS50502Sa : 9:00 AM - 4:00 PM79.00
ACLS Renewal - Advanced Cardiac Life Support12/12/20201XEMS50503Sa : 9:00 AM - 4:00 PM79.00
ACLS Skills Checkoff10/17/20201XEMS50603Sa : 12 N - 4:00 PM89.00
ACLS Skills Checkoff11/22/20201XEMS50604Su : 12 N - 4:00 PM89.00
ACLS Skills Checkoff12/12/20201XEMS50605Sa : 12 N - 4:00 PM89.00
Advanced Product Quality Planning (APQP) & Control Plan03/02/21212XQAT50101Tu & Th : 10:00 AM - 2:00 PM429.00
APICS Certified in Logistics, Transportation and Distribution (CLTD)02/16/21212PLOG51301Tu : 6:00 PM - 9:00 PM1995.00
APICS Certified in Production and Inventory Management (CPIM) Module I02/15/21212PLOG51101M & Th : 6:00 PM - 9:00 PM1500.00
APICS Certified in Production and Inventory Management (CPIM) Module II10/26/20201PLOG51201M & Th : 6:00 PM - 9:00 PM1800.00
APICS Certified in Production and Inventory Management (CPIM) Module II04/05/21212PLOG51201M & Th : 6:00 PM - 9:00 PM1800.00
Asbestos Inspector11/16/20201XEVT50102M, Tu & W : 8:30 AM - 5:30 PM529.00
Asbestos Inspector - Columbia10/05/20201PEVT50101M, Tu & W : 8:30 AM - 4:30 PM529.00
Asbestos Inspector Refresher11/17/20201XEVT50207Tu : 8:30 AM - 12:30 PM159.00
Asbestos Inspector Refresher (Virtual)10/07/20201XEVT50203W : 8:30 AM - 12:30 PM159.00
Asbestos Inspector Refresher (Virtual)11/02/20201XEVT50204M : 8:30 AM - 12:30 PM159.00
Asbestos Inspector Refresher (Virtual)12/03/20201XEVT50205Th : 8:30 AM - 12:30 PM159.00
Asbestos Inspector Refresher - Columbia10/05/20201PEVT50202M : 8:30 AM - 12:30 PM159.00
Asbestos Management Planner11/19/20201XEVT50301Th & F : 8:30 AM - 4:30 PM449.00
Asbestos Management Planner Refresher11/17/20201XEVT50407Tu : 1:30 PM - 5:30 PM249.00
Asbestos Management Planner Refresher (Virtual)10/07/20201XEVT50403W : 8:30 AM - 5:30 PM249.00
Asbestos Management Planner Refresher (Virtual)11/02/20201XEVT50404M : 8:30 AM - 5:30 PM249.00
Asbestos Management Planner Refresher (Virtual)12/03/20201XEVT50405Th : 8:30 AM - 5:30 PM249.00
Asbestos O&M Worker11/23/20201XEVT50501M & Tu : 8:30 AM - 5:30 PM299.00
Asbestos O&M Worker Refresher (Virtual)10/08/20201XEVT50601Th : 8:30 AM - 5:30 PM199.00
Asbestos Project Designer Refresher11/20/20201XEVT51405F : 8:30 AM - 4:30 PM279.00
Asbestos Project Designer Refresher (Virtual)11/05/20201XEVT51403Th : 8:30 AM - 5:30 PM279.00
Asbestos Supervisor10/26/20201XEVT50702M, Tu, W, Th & F : 8:30 AM - 5:30 PM779.00
Asbestos Supervisor Refresher11/18/20201XEVT50807W : 8:30 AM - 5:30 PM199.00
Asbestos Supervisor Refresher (Virtual)10/06/20201XEVT50803Tu : 8:30 AM - 5:30 PM199.00
Asbestos Supervisor Refresher (Virtual)11/04/20201XEVT50804W : 8:30 AM - 5:30 PM199.00
Asbestos Supervisor Refresher (Virtual)12/02/20201XEVT50805W : 8:30 AM - 5:30 PM199.00
Asbestos Worker Refresher (Virtual)10/08/20201XEVT51101Th : 8:30 AM - 5:30 PM199.00
Audiometric Technician Certification (Hearing Conservation)(Closed)*10/07/20201PAHS50201W, Th & F : 8:30 AM - 5:30 PM624.00
Audiometric Technician Recertification(Closed)*10/08/20201PAHS50301Th : 8:00 AM - 5:00 PM424.00
Auditing AIAG Core Tools (FMEA,APQP,PPAP,MSA)12/02/20201XQAT53701W & F : 8:30 AM - Noon429.00
Auditing AIAG Core Tools (FMEA,APQP,PPAP,MSA)04/19/21212XQAT53701M & W : 8:30 AM - Noon429.00
Basic Cooking Skills Program - Entry Level Certificate Program11/02/20201XCHI53303M, Tu, W & Th : 8:30 AM - 3:30 PM825.00
Basic Service Skills Program Certificate Program-Entry Level11/16/20201XCHI53401M, Tu, W, Th & F : 9:00 AM - 4:00 PM395.00
Basic Statistical Process Control (SPC) & Capability12/01/20201XQAT53201Tu & Th : 10:00 AM - 2:00 PM429.00
Basic Statistical Process Control (SPC) & Capability03/23/21212XQAT53201Tu & Th : 10:00 AM - 2:00 PM429.00
Biscuits and Gravy11/17/20201XCHI53503Tu : 9:00 AM - 11:00 AM45.00
Brownies and Bars10/17/20201XCHI55501Sa : 9:00 AM - 12:30 PM95.00
Brunch Basics10/30/20201XCHI55701F : 5:30 PM - 9:00 PM119.00
Building Teamwork and Group Dynamics10/12/20201XMGT53001M & W : 8:30 AM - Noon339.00
Building Teamwork and Group Dynamics02/15/21212XMGT53001M & Tu : 8:30 AM - Noon339.00
Building Teamwork and Group Dynamics05/24/21213XMGT53001M & Tu : 8:30 AM - Noon339.00
Business Leadership: Becoming Management Material10/19/20201XMGT50201M & Tu : 1:00 PM - 4:30 PM899.00
Butchery: what to do with a whole beef tenderloin demonstration and tasting12/15/20201XCHI57701Tu : 6:00 PM - 8:00 PM45.00
Cauliflower Rice Class10/14/20201XCHI54401W : 9:30 AM - 11:30 AM45.00
Cauliflower Ricetastic10/21/20201XCHI54402W : 9:00 AM - 12:30 PM119.00
Central Sterile Processing Technician02/23/21213XSUR50101Tu & Th : 6:00 PM - 9:00 PM999.00
Certified Supply Chain Professional (APICS)03/02/21212PLOG50201Tu : 6:00 PM - 9:00 PM1995.00
Closing the Generation Gap in the Workplace11/17/20201XMGT50501Tu & W : 8:30 AM - Noon339.00
Closing the Generation Gap in the Workplace03/16/21212XMGT50501Tu & W : 8:30 AM - Noon339.00
Coffee and Biscotti12/10/20201XCHI56601Th : 9:00 AM - 12:30 PM119.00
Confined Space Entry - Competent Person (Virtual)11/17/20201XEVT51501Tu : 8:30 AM - 5:30 PM149.00
Conversational Spanish I10/20/20201XSPA50202Tu & Th : 6:00 PM - 8:00 PM139.00
Conversational Spanish II11/19/20201XSPA50301Th & Tu : 6:00 PM - 8:00 PM139.00
CPR/BLS Healthcare Provider(Closed)*10/09/20201XAHS50718F : 9:00 AM - 1:30 PM59.00
CPR/BLS Healthcare Provider10/23/20201XAHS50720F : 9:00 AM - 1:30 PM59.00
CPR/BLS Healthcare Provider(Closed)*10/24/20201XAHS50721Sa : 9:00 AM - 1:30 PM59.00
CPR/BLS Healthcare Provider11/07/20201XAHS50723Sa : 9:00 AM - 1:30 PM59.00
CPR/BLS Healthcare Provider11/13/20201XAHS50725F : 9:00 AM - 1:30 PM59.00
CPR/BLS Healthcare Provider12/05/20201XAHS50728Sa : 9:00 AM - 1:30 PM59.00
CPR/BLS Instructor Renewal11/14/20201XAHS50902Sa : 9:00 AM - 1:00 PM59.00
CPR/BLS Renewal Healthcare Provider10/26/20201XAHS51006M : 5:30 PM - 9:00 PM49.00
CPR/BLS Renewal Healthcare Provider11/23/20201XAHS51007M : 5:30 PM - 9:00 PM49.00
CPR/BLS Renewal Healthcare Provider12/04/20201XAHS51009F : 9:00 AM - 12:30 PM49.00
CPR/BLS Skills Checkoff10/13/20201XAHS51115Tu : 5:30 PM - 7:30 PM39.00
CPR/BLS Skills Checkoff10/30/20201XAHS51103F : 9:00 AM - 11:00 AM39.00
CPR/BLS Skills Checkoff11/20/20201XAHS51104F : 9:00 AM - 11:00 AM39.00
CPR/BLS Skills Checkoff11/21/20201XAHS51118Sa : 9:00 AM - 11:00 AM39.00
CPR/BLS Skills Checkoff11/21/20201XAHS51119Sa : 12 N - 2:00 PM39.00
CPR/BLS Skills Checkoff12/15/20201XAHS51120Tu : 5:30 PM - 7:30 PM39.00
CPR/BLS Skills Checkoff12/18/20201XAHS51105F : 9:00 AM - 11:00 AM39.00
Create Seasonal Wreaths & Holiday Floral Arrangements!11/24/20201XARV50501Tu : 6:30 PM - 9:30 PM139.00
Defensive Driving(Closed)*10/10/20201XTRL50105Sa : 8:30 AM - 4:30 PM89.00
Defensive Driving(Closed)*10/24/20201XTRL50107Sa : 8:30 AM - 4:30 PM89.00
Defensive Driving(Closed)*11/07/20201XTRL50108Sa : 8:30 AM - 4:30 PM89.00
Defensive Driving11/21/20201XTRL50109Sa : 8:30 AM - 4:30 PM89.00
Defensive Driving12/05/20201XTRL50110Sa : 8:30 AM - 4:30 PM89.00
Dental Radiation Safety Certification Training - Virtual11/10/20201XDHG50101Tu & Th : 6:00 PM - 8:00 PM189.00
Dinner Party Tex-Mex12/18/20201XCHI57001F : 5:30 PM - 9:00 PM119.00
Dinner Party: Creole10/27/20201XCHI54701Tu : 9:30 AM - 11:30 AM45.00
Emergency Dispatch 9-1-1 (Hybrid)11/14/20201XEMS50701Sa : 9:00 AM - 1:30 PM499.00
Emergency Response Operations Level - 24 Hr HAZWOPER11/30/20201XEVT51702M, Tu & W : 8:30 AM - 5:30 PM549.00
Emergency Response Technician Level - 40 Hr HAZWOPER (Hybrid)11/30/20201XEVT51802M, Tu, W, Th & F : 8:30 AM - 5:30 PM799.00
Employee Accountability10/21/20201XMGT51101W : 8:30 AM - 4:30 PM339.00
Employee Accountability05/12/21213XMGT51101W & Th : 8:30 AM - Noon339.00
Failure Mode Effect Analysis (FMEA)11/10/20201XQAT50501Tu & Th : 10:00 AM - Noon429.00
Failure Mode Effect Analysis (FMEA)03/16/21212XQAT50501Tu & Th : 10:00 AM - 2:00 PM429.00
Fall Prevention/Fall Protection Authorized User10/09/20201XEVT59110F : 8:30 AM - 12:30 PM0.00
Fall Prevention/Fall Protection Authorized User10/17/20201XEVT59112Sa : 8:30 AM - 12:30 PM0.00
Fall Prevention/Fall Protection Authorized User10/23/20201XEVT59114F : 8:30 AM - 12:30 PM0.00
Fall Prevention/Fall Protection Authorized User10/31/20201XEVT59116Sa : 8:30 AM - 12:30 PM0.00
Fall Prevention/Fall Protection Authorized User11/06/20201XEVT59118F : 8:30 AM - 12:30 PM0.00
Fall Prevention/Fall Protection Authorized User11/12/20201XEVT59120Th : 8:30 AM - 12:30 PM0.00
Fall Prevention/Fall Protection Authorized User11/18/20201XEVT59122W : 8:30 AM - 12:30 PM0.00
Fall Prevention/Fall Protection Authorized User11/23/20201XEVT59123M : 8:30 AM - 12:30 PM0.00
Fall Prevention/Fall Protection Authorized User12/04/20201XEVT59125F : 8:30 AM - 12:30 PM0.00
Fall Prevention/Fall Protection Authorized User (Virtual)10/05/20201XEVT59108M : 8:30 AM - 12:30 PM0.00
Fall Prevention/Fall Protection Authorized User (Virtual)10/07/20201XEVT59109W : 8:30 AM - 12:30 PM0.00
Fall Prevention/Fall Protection Authorized User (Virtual)10/13/20201XEVT59111Tu : 8:30 AM - 12:30 PM0.00
Fall Prevention/Fall Protection Authorized User (Virtual)10/21/20201XEVT59113W : 8:30 AM - 12:30 PM0.00
Fall Prevention/Fall Protection Authorized User (Virtual)10/27/20201XEVT59115Tu : 8:30 AM - 12:30 PM0.00
Fall Prevention/Fall Protection Authorized User (Virtual)11/04/20201XEVT59117W : 8:30 AM - 12:30 PM0.00
Fall Prevention/Fall Protection Authorized User (Virtual)11/10/20201XEVT59119Tu : 8:30 AM - 12:30 PM0.00
Fall Prevention/Fall Protection Authorized User (Virtual)11/16/20201XEVT59121M : 8:30 AM - 12:30 PM0.00
Fall Prevention/Fall Protection Authorized User (Virtual)11/30/20201XEVT59124M : 8:30 AM - 12:30 PM0.00
Fall Prevention/Fall Protection Authorized User - Spanish10/15/20201XEVT59806Th : 8:30 AM - 12:30 PM0.00
Fall Prevention/Fall Protection Authorized User - Spanish10/24/20201XEVT59808Sa : 8:30 AM - 12:30 AM0.00
Fall Prevention/Fall Protection Authorized User - Spanish10/28/20201XEVT59809W : 8:30 AM - 12:30 AM0.00
Fall Prevention/Fall Protection Authorized User - Spanish11/09/20201XEVT59812M : 8:30 AM - 12:30 AM0.00
Fall Prevention/Fall Protection Authorized User - Spanish11/24/20201XEVT59814Tu : 8:30 AM - 12:30 AM0.00
Fall Prevention/Fall Protection Authorized User - Spanish12/02/20201XEVT59815W : 8:30 AM - 12:30 AM0.00
Fall Prevention/Fall Protection Authorized User - Spanish (Virtual)10/12/20201XEVT59805M : 8:30 AM - 12:30 AM0.00
Fall Prevention/Fall Protection Authorized User - Spanish (Virtual)10/20/20201XEVT59807Tu : 8:30 AM - 12:30 AM0.00
Fall Prevention/Fall Protection Authorized User - Spanish (Virtual)10/29/20201XEVT59810Th : 8:30 AM - 12:30 AM0.00
Fall Prevention/Fall Protection Authorized User - Spanish (Virtual)11/02/20201XEVT59811M : 8:30 AM - 12:30 AM0.00
Fall Prevention/Fall Protection Authorized User - Spanish (Virtual)11/20/20201XEVT59813F : 8:30 AM - 12:30 AM0.00
Farmers Market Flavors12/05/20201XCHI57501Sa : 9:00 AM - 11:00 AM45.00
First Aid/CPR Pediatric Heartsaver11/14/20201XAHS51501Sa : 9:00 AM - 5:00 PM69.00
First Aid/CPR/AED & Pediatric Heartsaver Skills Checkoff10/30/20201XAHS54803F : 11:30 AM - 1:30 PM39.00
First Aid/CPR/AED & Pediatric Heartsaver Skills Checkoff11/20/20201XAHS54804F : 11:30 AM - 1:30 PM39.00
First Aid/CPR/AED & Pediatric Heartsaver Skills Checkoff12/18/20201XAHS54805F : 11:30 AM - 1:30 PM39.00
Five Best Practices for Effective Leadership10/26/20201XMGT51401M & Tu : 8:30 AM - Noon339.00
Five Best Practices for Effective Leadership03/01/21212XMGT51401M & Tu : 8:30 AM - Noon339.00
Five Best Practices for Effective Leadership06/14/21213XMGT51401M & Tu : 8:30 AM - Noon339.00
Flavoring Foods11/18/20201XCHI51603W : 5:30 PM - 9:00 PM119.00
Floral Design for Weddings & Occasions10/27/20201XARV50401Tu : 6:30 PM - 9:30 PM139.00
Forklift Safety Training10/12/20201XLOG50502M : 6 PM - 10 PM , Tu & W: 6 PM - 9:00 PM289.00
Forklift Safety Training12/14/20201XLOG50503M : 6 PM - 10 PM , Tu & W: 6 PM - 9:00 PM289.00
Forklift Train The Trainer Competent Person11/19/20201XLOG50602Th : 7:30 AM - 4:30 PM529.00
Forklift Train The Trainer Competent Person02/18/21212XLOG50601Th : 7:30 AM - 4:30 PM529.00
Fresh Sausage Making 2: Italian Chorizo Sausage10/07/20201XCHI55301W : 9:00 AM - 1:00 PM119.00
Geometric Dimensioning & Tolerancing10/16/20201XMTT52201F : 9:00 AM - 4:00 PM299.00
Getting More Done in Less Time10/19/20201XMGT53201M & Tu : 8:30 AM - Noon339.00
Getting More Done in Less Time02/22/21212XMGT53201M & Tu : 8:30 AM - Noon339.00
Getting More Done in Less Time06/07/21213XMGT53201M & Tu : 8:30 AM - Noon339.00
Gingerbread Kits Mommy and Me Class12/04/20201XCHI56402F : 2:30 PM - 6:00 PM119.00
Gingerbread Kits Mommy and Me Class12/04/20201XCHI56401F : 9:00 AM - 12:30 PM119.00
Halloween Cookie Decorate10/29/20201XCHI55601Th : 5:00 PM - 8:00 PM119.00
Handling and Shipping of Hazardous Materials, Substances, and Wastes - DOT10/06/20201XEVT51901Tu : 8:30 AM - 5:30 PM249.00
Hazmat Awareness Level - 8 Hr HAZWOPER11/30/20201XEVT52202M : 8:30 AM - 5:30 PM229.00
HAZWOPER Annual Refresher12/04/20201XEVT52602F : 8:30 AM - 5:30 PM199.00
Herbs and Spices11/19/20201XCHI51703Th : 9:00 AM - 12:30 AM119.00
Holiday Cookies12/21/20201XCHI57201M : 9:00 AM - 12:30 PM119.00
Human Resource Generalist Certificate02/04/21212XMGT51801Th : 6:00 PM - 9:00 PM1499.00
HVACR/EPA 608 Certification10/09/20201XACR50102F : 11:00 AM - Noon99.00
HVACR/EPA 608 Certification12/11/20201XACR50103F : 11:00 AM - Noon99.00
IAQA Indoor Environmentalist - Fundamentals12/07/20201PEVT52701M, Tu & W : 8:00 AM - 5:00 PM950.00
IAQA Indoor Environmentalist - Intermediate Level (CIE/CIEC)12/10/20201PEVT52801Th : 8:00 AM - 5:00 PM750.00
IAQA Microbial Remediator/Supervisor - CMR/CMRS12/07/20201PEVT52901M, Tu & W : 8:00 AM - 5:00 PM925.00
IAQTI Collecting & Interpreting Mold Samples - Advanced Level12/10/20201PEVT58601Th : 8:00 AM - 5:00 PM325.00
IATA HazMat Air Shipper10/07/20201XEVT58201W : 8:30 AM - 5:30 PM249.00
IATF 16949: 2016 - Understanding Standard11/09/20201XQAT51201M, W & F : 8:30 AM - 2:00 PM549.00
IMDG HazMat Vessel Shipper10/08/20201XEVT58301Th : 8:30 AM - 5:30 PM249.00
Interpretation III: Bilingual Intro to Common Diseases Anatomy & Physiology - English-Spanish10/09/20201XAHS52401M, W, F : ON - LINE on Fri, Mon & Wed: 6:30 PM - 8:30 PM409.00
Interpretation IV: Medical Interpretation Skills ONLINE11/06/20201XAHS52501M, W, F : ON - LINE on Fri, Mon & Wed: 6:30 PM - 8:30 PM409.00
ISO / IATF Internal / Supplier Auditor (Auditor ONLY)10/26/20201XQAT53501M, W & F : 8:30 AM - 12:30 PM529.00
ISO 9001:2015 - Understanding Standard10/19/20201XQAT51501M, W & F : 8:30 AM - 12:30 PM549.00
ISO 9001:2015 Standard & Internal/Supplier Auditor10/19/20201XQAT51101M, W & F : 8:30 AM - 12:30 PM929.00
Key Communication Strategies for Workplace Success02/01/21212XMGT50601M & Tu : 8:30 AM - Noon359.00
Key Communication Strategies for Workplace Success05/10/21213XMGT50601M & Tu : 8:30 AM - Noon359.00
Knife Skills11/20/20201XCHI51202F : 5:30 PM - 9:00 PM85.00
Lead Inspector Refresher11/09/20201XEVT53302M : 8:30 AM - 5:30 PM219.00
Lead Project Designer10/23/20201XEVT53401F : 8:30 AM - 5:30 PM259.00
Lead Renovation, Repair and Painting10/23/20201XEVT53603F : 8:30 AM - 5:30 PM239.00
Lead Renovation, Repair and Painting11/12/20201XEVT53604Th : 8:30 AM - 5:30 PM239.00
Lead Renovation, Repair and Painting12/11/20201XEVT53605F : 8:30 AM - 5:30 PM239.00
Lead Renovation, Repair and Painting - Columbia10/13/20201PEVT53601Tu : 8:30 AM - 5:30 PM239.00
Lead Renovation, Repair and Painting Refresher10/16/20201XEVT53703F : 8:30 AM - 12:30 PM149.00
Lead Renovation, Repair and Painting Refresher11/13/20201XEVT53704F : 8:30 AM - 12:30 PM149.00
Lead Renovation, Repair and Painting Refresher12/18/20201XEVT53705F : 8:30 AM - 12:30 PM149.00
Lead Risk Assessor Refresher11/10/20201XEVT54002Tu : 8:30 AM - 5:30 PM229.00
Lead Supervisor10/19/20201XEVT54201M, Tu, W & Th : 8:30 AM - 5:30 PM699.00
Lead Supervisor Refresher11/11/20201XEVT54302W : 8:30 AM - 5:30 PM199.00
Lean Six Sigma Green Belt10/27/20212XBUS52401Tu & Th : 8:00 AM - Noon2999.00
Lean Six Sigma Yellow Belt : Problem Solving & Process Improvement09/29/20201XBUS55601Tu & Th : 8:00 AM - Noon999.00
Manufacturing Print Reading10/09/20201XMTT52701F : 9:00 AM - 4:00 PM229.00
Measurement System Analysis (MSA)11/02/20201XQAT51601M & W : 8:30 AM - 12:30 PM399.00
Minitab: Basic Statistics, Graphs, SPC and Capability12/02/20201XQAT51701W & Th : 8:00 AM - 5:00 PM829.00
Mold Remediation Technician12/07/20201PEVT54901M & Tu : 8:00 AM - 5:00 PM625.00
Mother Sauces: Bechamel and Veloute12/02/20201XCHI56201W : 5:30 PM - 9:00 PM119.00
Mother Sauces: Hollandaise and Demi Glace12/16/20201XCHI56801W : 5:30 PM - 9:00 PM119.00
Mother Sauces: Tomato and Espagnole12/09/20201XCHI56501W : 5:30 PM - 9:00 PM119.00
Motorcycle Safety - Beginning(Closed)*10/10/20201XTRL50308Sa & Su : 8:00 AM - 5:00 PM289.00
NCCER Core Introductory to Craft Skills10/12/20201XBCT51301M : 9:00 AM - 4:00 PM920.00
New Orleans Cuisine10/09/20201XCHI55401F : 5:30 PM - 9:00 PM119.00
NIOSH 582 - Sampling & Evaluating Airborne Asbestos Fibers11/09/20201XEVT55002M, Tu, W, Th & F : 8:30 AM - 5:30 PM879.00
Nitrous Oxide Inhalation Monitoring - Virtual(Closed)*11/17/20201XDHG50202Tu : 5:30 PM - 9:30 PM189.00
Nursing Assistant(Closed)*10/12/20201XNUR50606M, Tu, W, Th & F : 9:00 AM - 3:30 PM No class 11/3874.00
Nursing Assistant(Closed)*10/26/20201XNUR50607M, Tu, W & Th : 5:00 PM - 9:00 PM: No class 11/3 or: 11/25/2874.00
Nursing Assistant(Closed)*11/09/20201XNUR50608M, Tu, W, Th & F : 9:00 AM - 3:30 PM874.00
Nursing Assistant01/05/21212XNUR50601Tu, W, Th, F & M : 9:00 AM - 3:30 PM; No Class 01/18 ; Clini874.00
Nursing Assistant01/05/21212XNUR50602Tu, W, Th & M : 5:00 PM - 9:00 PM; No Class 01/18; Clinical874.00
Nursing Assistant02/01/21212XNUR50603M, Tu, W, Th & F : 9:00 AM - 3:30 PM; Clincal 02/11 - 02/19874.00
Nursing Assistant02/22/21212XNUR50604M, Tu, W & Th : 5:00 PM - 9:00 PM; Clinical 03/15 - 03/30874.00
Nursing Assistant03/01/21212XNUR50605M, Tu, W, Th & F : 9:00 AM - 3:30 PM; Clinical 03/11 - 03/19874.00
Nursing Assistant03/29/21212XNUR50606M, Tu, W, Th & F : 9:00 AM - 3:30 PM; Clinical 04/08 - 04/16874.00
Nursing Assistant04/12/21213XNUR50601M, Tu, W & Th : 5:00 PM - 9:00 PM; Clinical 05/03 - 05/18874.00
Nursing Assistant04/26/21213XNUR50602M, Tu, W, Th & F : 9:00 AM - 3:30 PM; Clinical 05/06 - 05/14874.00
Nursing Assistant05/24/21213XNUR50603M, Tu, W, Th & F : 9:00 AM - 3:30 PM; No class 05/31; Clinic874.00
Nursing Assistant06/01/21213XNUR50604Tu, W, Th & M : 5:00 PM - 9:00 PM; No class 07/05; Clinical874.00
Nursing Assistant06/21/21213XNUR50605M, Tu, W, Th & F : 9:00 AM - 3:30 PM; No class 07/05; Clinic874.00
Nursing Assistant07/19/21211XNUR50602M, Tu, W, Th & F : 9:00 AM - 3:30 PM; Clinical 07/29 - 08/06874.00
Nursing Assistant07/19/21211XNUR50601M, Tu, W & Th : 5:00 PM - 9:00 PM; Clinical 08/09 - 08/24874.00
Nursing Assistant08/16/21211XNUR50603M, Tu, W, Th & F : 9:00 AM - 3:30 PM; Clinical 08/26 - 09/03874.00
Nursing Assistant09/07/21211XNUR50604Tu, W, Th & M : 5:00 PM - 9:00 PM; Clinical 09/28 - 10/13874.00
Nursing Assistant09/13/21211XNUR50605M, Tu, W, Th & F : 9:00 AM - 3:30 PM; Clinical 09/23 - 10/01874.00
Nursing Assistant10/11/21211XNUR50606M, Tu, W, Th & F : 9:00 AM - 3:30 PM; Clinical 10/21 - 10/29874.00
Nursing Assistant10/25/21211XNUR50607M, Tu, W & Th : 5:00 PM - 9:00 PM; No Class 11/24 & 11/25; C874.00
Nursing Assistant11/08/21211XNUR50608M, Tu, W, Th & F : 9:00 AM - 3:30 PM; No Class 11/24 - 11/26874.00
Oktoberfest10/23/20201XCHI53802F : 5:30 PM - 9:00 PM119.00
Ophthalmic Medical Assistant - Eye Care Training01/11/21213XOPH50101M & Th : 6:00 PM - 9:00 PM; Clinical 05/24 through 06/07/211145.00
OSHA 10-Hour Construction Industry (Virtual)12/14/20201XEVT55101M & Tu : 8:00 AM - 5:00 PM259.00
OSHA 10-Hour General Industry (Virtual)10/12/20201XEVT55301M & Tu : 8:00 AM - 5:00 PM259.00
OSHA 30-Hour for Construction Industry (Virtual)09/28/20201XEVT55401M, Tu, W & Th : 8:00 AM - 5:00 PM679.00
OSHA 30-Hour for Construction Industry (Virtual)12/14/20201XEVT55402M, Tu, W & Th : 8:00 AM - 5:00 PM679.00
OSHA 30-Hour for General Industry (Virtual)10/12/20201XEVT55502M, Tu, W & Th : 8:00 AM - 5:00 PM679.00
PALS Instructor Renewal11/14/20201XEMS51302Sa : 9:00 AM - 1:00 PM59.00
PALS Renewal - Pediatric Advanced Life Support11/07/20201XEMS51401Sa : 9:00 AM - 5:00 PM79.00
PALS Skills Checkoff11/07/20201XEMS51502Sa : 12 N - 5:00 PM89.00
Pasta Demo12/08/20201XCHI57601Tu : 12 N - 2:00 PM45.00
Pasta Making Skills11/24/20201XCHI56101Tu : 1:00 PM - 4:30 PM85.00
Patient Service Representative (didactic only)10/19/20201XAOT51302M, Tu & W : 5:30 PM - 8:30 PM732.00
Perlo: Favorite of the Lowcountry: Carolina Gold Rice and combination of farm fresh ingredient10/06/20201XCHI54101Tu : 9:30 AM - 11:30 AM45.00
Phlebotomy(Closed)*10/19/20212XAHS53101M, Tu & Th : 6:00 PM - 9:00 PM/Off - Campus 3wks - Mon - Fri1039.00
Phlebotomy(Closed)*01/11/21212XAHS53102M, Tu & Th : 6:00 PM - 9:00 PM/OFF CAMPUS Clinical - 3wks -1039.00
Photography II: Put Your Photos to Work!10/19/20201XARV52401M : 6:00 PM - 9:00 PM169.00
Pies 10112/03/20201XCHI56301Th : 9:00 AM - 12:30 PM119.00
Pit Master Class: Brisket12/11/20201XCHI56701FRIDAY : 5:30 PM - 9:00 PM SATURDAY 9:00AM - 12:30PM119.00
Pit Master Class: Turkey12/19/20201XCHI57101Sa : 9:00 AM - 2:00 PM119.00
Pit Master Series: BBQ Chicken10/26/20201XCHI55102M : 5:30 PM - 9:00 PM119.00
Pit Master Series: BBQ Ribs10/31/20201XCHI55801Sa : 9:00 AM - 3:00 PM119.00
Polysomnographic Technician Training Clinical Externshipn/a201XRES50401M : 9:00 PM - 7:00 AM379.00
Precision Measurement Tools10/23/20201XMTT51801F : 9:00 AM - 4:00 PM229.00
Presentations and Meetings10/06/20201XMGT52601Tu & W : 8:30 AM - Noon339.00
Presentations and Meetings04/14/21212XMGT52601W & Th : 8:30 AM - Noon339.00
Problem Solving, Root Cause Analysis and Corrective Action12/14/20201XEGR50501M & W : 8:00 AM - Noon309.00
Production Part Approval Process (PPAP)10/13/20201XQAT52201Tu & Th : 10:00 AM - 4:00 PM429.00
Production Part Approval Process (PPAP)03/09/21212XQAT52201Tu & Th : 10:00 AM - 4:00 PM429.00
Risotto Me Hungry10/15/20201XCHI55901Th : 5:30 PM - 9:00 PM119.00
Root Cause Analysis (Virtual)11/06/20201PEVT59001F : 8:00 AM - 5:00 PM389.00
Safety Leadership for Supervisors (Virtual)11/05/20201PEVT58901Th : 8:00 AM - 5:00 PM389.00
Safety Orientation - Hazard Awareness (Virtual)10/27/20201PEVT58801Tu : 8:00 AM - 5:00 PM239.00
Sauteing / Pan Frying11/21/20201XCHI52203Sa : 9:00 AM - 12:30 PM119.00
Secrets of Top Performing Managers01/27/21212XMGT51601W & Th : 8:30 AM - 2:00 PM399.00
Secrets of Top Performing Managers05/05/21213XMGT51601W & Th : 8:30 AM - 2:00 PM399.00
ServSafe Food Handler10/12/20201XCHI56003M : 9:00 AM - 3:00 PM110.00
ServSafe Food Handler11/16/20201XCHI56004M : 9:00 AM - 3:00 PM110.00
ServSafe Food Handler12/14/20201XCHI56005M : 9:00 AM - 3:00 PM110.00
ServSafe Food Handler01/11/21212XCHI56006M : 9:00 AM - 3:00 PM110.00
ServSafe Food Protection Manager Certification(Closed)*11/14/20201XCUL50102Sa : 8:00 AM - 5:00 PM179.00
ServSafe Food Protection Manager Certification01/09/21212XCHI57801Sa : 8:00 AM - 5:00 PM92.50
ServSafe Food Protection Manager Certification02/06/21212XCHI57802Sa : 8:00 AM - 5:00 PM92.50
Shrimp and Grits10/08/20201XCHI53602Th : 9:00 AM - 1:00 PM119.00
SHRM-CP or SHRM-SCP Prep Class02/01/21212XMGT52801M : 6:00 PM - 9:00 PM1499.00
Silica - Competent Person12/01/20201XEVT57602Tu : 8:30 AM - 5:30 PM199.00
SL II ™03/24/21212XMGT52901W & Th : 8:30 AM - 4:30 PM799.00
Solar Photovoltaic Systems (Hybrid)10/13/20201XSOL50301Tu, Th, F : Tu/Th 5:30 PM - 9 PM Virtual, three F labs 8:00699.00
Southern New Year's Traditional Dinner11/23/20201XCHI57301M : 6:00 PM - 8:00 PM45.00
Stir Fry Basics of Wok Cookery10/28/20201XCHI54801W : 9:30 AM - 11:30 AM45.00
Stress-Free Problem Solving for Today's Workplace10/05/20201XMGT52701M & Tu : 8:30 AM - Noon339.00
Stress-Free Problem Solving for Today's Workplace02/08/21212XMGT52701M & Tu : 8:30 AM - Noon339.00
Stress-Free Problem Solving for Today's Workplace05/17/21213XMGT52701M & Tu : 8:30 AM - Noon339.00
Sweet Bars10/13/20201XCHI54301Tu : 9:30 AM - 11:30 AM45.00
Tacos and Tortillas10/20/20201XCHI54501Tu : 9:30 AM - 11:30 AM45.00
Tacos and Tortillas10/22/20201XCHI54502Th : 9:00 AM - 12:30 PM119.00
Tailgate Appetizers10/10/20201XCHI54201Sa : 9:30 AM - 11:30 AM45.00
Taste of Spain10/16/20201XCHI54602F : 5:30 PM - 9:00 PM119.00
Taste of Spain10/24/20201XCHI54601Sa : 9:30 AM - 11:30 AM45.00
What to do when you have a whole chicken12/17/20201XCHI56901Th : 9:00 AM - 12:30 PM119.00
You Can Write & Design Fiction! - Part 111/05/20201XENG50701Th : 6:30 PM - 8:30 PM119.00

Back to Top

Online/Memberships/Donations

Course # Title Fee
201PEVT59703Accredited Infection Prevention Expert (Virtual)299.00
201PEMS50201ACLS - Advanced Cardiac Life Support (Hybrid)229.00
201PEVT61701Advanced Math for Water/Wastewater Operators (Online Instructor Supported)399.00
201PEVT61601Basic Math for Water/Wastewater Operators (Online Instructor Supported)399.00
201PEVT60801Biological Wastewater 12-Hr Review (Online Instructor Supported)299.00
201PEVT61201Biological Wastewater 6-Hr Review (Online Instructor Supported)199.00
201PEVT60101Biological Wastewater Advanced Short School (Online Instructor Supported)499.00
201PEVT60001Biological Wastewater Basic Short School (Online Instructor Supported)499.00
201PAHS50501Bloodborne Pathogens (Online)39.00
201PEVT61801Certified Pool & Spa Operator (Online Instructor Supported)250.00
201PAHS50802CPR/BLS Healthcare Provider w/Instructor-Led Skills Check (Hybrid)89.00
201PAHS57302CPR/BLS Healthcare Provider w/Voice-Assisted Manikin Skills Check (Hybrid)99.00
201PAHS51301CPR/Heartsaver (Hybrid)79.00
201PEVT51601DOT Hazardous Materials Transportation199.00
201PAHS55601First Aid/CPR Pediatric Heartsaver (Hybrid)89.00
201PAHS51701First Aid/CPR/AED Heartsaver (Hybrid)89.00
201PAHS51901First Aid/Heartsaver (Hybrid)79.00
212XAHS56901Fundamentals of Anatomy for Healthcare Professionals249.00
201PEVT52001Hazardous Waste Management & Shipping for Environmental Professionals199.00
201PEVT52101Hazardous Waste Manifest Update75.00
201PEVT52301HAZWOPER - 24-Hour Moderate Risk Worker399.00
201XEVT52401HAZWOPER - 8-Hour Annual Refresher (Online)199.00
201PEVT52501HAZWOPER - Blended 40-Hour Waste Site Worker799.00
203XAHS52101HIPAA Privacy Training109.00
212XMGT55401Human Resource Generalist Certificate - Online1499.00
203XAHS54201Infection Control & Bloodborne Pathogens - For Body Piercing Tattoos(Closed)*39.00
201XAHS54201Infection Control & Bloodborne Pathogens - For Body Piercing Tattoos39.00
212XQAT50901ISO 14001: Environmental Management Systems Overview & Internal Auditor With ISO 19011879.00
212XNUR50502LPN Refresher1450.00
212XHIM51701Medical Coding Online949.00
201PHIM52201Medical Scribing for Allied Health Professionals995.00
212PHIM52201Medical Scribing for Allied Health Professionals995.00
212XAHS52701Medical Terminology Online169.00
203XAHS52901National Medicare Training100.00
203XAOT51501OSHA Guidelines for Healthcare89.00
201PEMS51101PALS- Pediatric Advanced Life Support (Hybrid)229.00
201PEVT60901Physical/Chemical Wastewater 12-Hr Review (Online Instructor Supported)299.00
201PEVT61301Physical/Chemical Wastewater 6-Hr Review (Online Instructor Supported)199.00
201PEVT60301Physical/Chemical Wastewater Advanced Short School (Online Instructor Supported)499.00
201PEVT60201Physical/Chemical Wastewater Basic Short School (Online Instructor Supported)499.00
201XAHS54701Preclinical Orientation - Continuing Education49.00
203XAHS54701Preclinical Orientation - Continuing Education(Closed)*49.00
201PEGR51001Project Management Core Course - Online649.00
212XNUR50701RN Refresher1800.00
212XNUR50901RN Refresher Update1499.00
201XIDS51104Test for Success - Math10.00
201XIDS51105Test for Success - Math10.00
201XIDS51106Test for Success - Math10.00
201XIDS51107Test for Success - Math10.00
201XIDS51703Test for Success - Reading10.00
201XIDS51704Test for Success - Reading10.00
201XIDS51705Test for Success - Reading10.00
201XIDS51706Test for Success - Reading10.00
201XIDS51803Test for Success - Writing10.00
201XIDS51804Test for Success - Writing10.00
201XIDS51805Test for Success - Writing10.00
201XIDS51806Test for Success - Writing10.00
203XAHS53901Unit Secretary (Didactic Only)989.00
201PEVT61001Water Distribution 12-Hr Review (Online Instructor Supported)299.00
201PEVT61401Water Distribution 6-Hr Review (Online Instructor Supported)199.00
201PEVT60501Water Distribution Advanced Short School (Online Instructor Supported)399.00
201PEVT60401Water Distribution Basic Short School (Online Instructor Supported)499.00
201PEVT61101Water Treatment 12-Hr Review (Online Instructor Supported)299.00
201PEVT61501Water Treatment 6-Hr Review (Online Instructor Supported)199.00
201PEVT60701Water Treatment Advanced Short School (Online Instructor Supported)499.00
201PEVT60601Water Treatment Basic Short School (Online Instructor Supported)499.00

Back to Top